Time;durP1;ratioP1;P1;durP2;ratioP2;P2;SDS_P1;SDS_P2;PMS_P1;PMS_P2;Temp;Humidity;BMP_temperature;BMP_pressure;BME280_temperature;BME280_humidity;BME280_pressure;Samples;Min_cycle;Max_cycle;Signal;HPM_P1;HPM_P2
2021/10/04 00:01:35;;;;;;;;;;;22.50;58.90;;;;;;5072287;28;19925;-57
2021/10/04 00:04:02;;;;;;;;;;;22.50;58.30;;;;;;5071360;28;19936;-58
2021/10/04 00:06:30;;;;;;;;;;;22.50;58.30;;;;;;5056495;28;19924;-58
2021/10/04 00:08:56;;;;;;;;;;;22.50;58.30;;;;;;5073739;28;19933;-57
2021/10/04 00:11:23;;;;;;;;;;;22.50;58.30;;;;;;5054513;28;19991;-57
2021/10/04 00:13:50;;;;;;;;;;;22.50;58.30;;;;;;5086534;28;19924;-57
2021/10/04 00:16:17;;;;;;;;;;;22.50;58.40;;;;;;5073579;28;20360;-58
2021/10/04 00:18:45;;;;;;;;;;;22.50;58.30;;;;;;5061230;28;20011;-58
2021/10/04 00:21:12;;;;;;;;;;;22.50;58.30;;;;;;5080428;28;19924;-55
2021/10/04 00:23:39;;;;;;;;;;;22.50;58.30;;;;;;5072098;28;19925;-58
2021/10/04 00:26:07;;;;;;;;;;;22.50;58.40;;;;;;5070975;28;19932;-58
2021/10/04 00:28:34;;;;;;;;;;;22.50;58.40;;;;;;5070933;28;19931;-59
2021/10/04 00:31:01;;;;;;;;;;;22.50;58.40;;;;;;5071913;28;19978;-59
2021/10/04 00:33:27;;;;;;;;;;;22.50;58.40;;;;;;5071992;28;19966;-58
2021/10/04 00:35:54;;;;;;;;;;;22.50;58.40;;;;;;5071098;28;19934;-58
2021/10/04 00:38:21;;;;;;;;;;;22.50;58.40;;;;;;5072031;28;20330;-57
2021/10/04 00:40:48;;;;;;;;;;;22.50;58.40;;;;;;5072278;28;20348;-58
2021/10/04 00:43:15;;;;;;;;;;;22.50;58.40;;;;;;5072578;28;20019;-58
2021/10/04 00:45:42;;;;;;;;;;;22.50;58.40;;;;;;5072746;28;19924;-56
2021/10/04 00:48:09;;;;;;;;;;;22.50;58.40;;;;;;5062474;28;19933;-58
2021/10/04 00:50:36;;;;;;;;;;;22.50;58.40;;;;;;5062807;28;19924;-58
2021/10/04 00:53:03;;;;;;;;;;;22.50;58.40;;;;;;5076853;28;20062;-57
2021/10/04 00:55:31;;;;;;;;;;;22.50;58.40;;;;;;5085969;28;19928;-58
2021/10/04 00:57:58;;;;;;;;;;;22.50;58.40;;;;;;5071448;28;20423;-58
2021/10/04 01:00:26;;;;;;;;;;;22.50;58.40;;;;;;5054192;28;19924;-57
2021/10/04 01:02:54;;;;;;;;;;;22.50;58.40;;;;;;5071997;28;19925;-59
2021/10/04 01:05:21;;;;;;;;;;;22.50;58.40;;;;;;5054965;28;20392;-59
2021/10/04 01:07:49;;;;;;;;;;;22.50;58.40;;;;;;5071837;28;20030;-59
2021/10/04 01:10:16;;;;;;;;;;;22.50;58.40;;;;;;5071370;28;20035;-58
2021/10/04 01:12:45;;;;;;;;;;;22.50;58.40;;;;;;5071550;28;19978;-60
2021/10/04 01:15:12;;;;;;;;;;;22.50;58.40;;;;;;5071206;28;20004;-58
2021/10/04 01:17:40;;;;;;;;;;;22.50;58.30;;;;;;5070636;28;19971;-59
2021/10/04 01:20:26;;;;;;;;;;;22.50;58.30;;;;;;5070145;28;19963;-58
2021/10/04 01:22:54;;;;;;;;;;;22.50;58.40;;;;;;5071338;28;19924;-57
2021/10/04 01:25:21;;;;;;;;;;;22.50;58.40;;;;;;5072241;28;20011;-58
2021/10/04 01:27:49;;;;;;;;;;;22.50;58.30;;;;;;5072622;28;19950;-58
2021/10/04 01:30:18;;;;;;;;;;;22.50;58.40;;;;;;5072534;28;19955;-57
2021/10/04 01:32:45;;;;;;;;;;;22.50;58.40;;;;;;5089463;28;19970;-59
2021/10/04 01:35:12;;;;;;;;;;;22.50;58.40;;;;;;5054108;28;19968;-58
2021/10/04 01:37:39;;;;;;;;;;;22.50;58.40;;;;;;5056477;28;20392;-57
2021/10/04 01:40:07;;;;;;;;;;;22.50;58.30;;;;;;5060454;28;19929;-58
2021/10/04 01:42:34;;;;;;;;;;;22.50;58.30;;;;;;5072690;28;20265;-58
2021/10/04 01:45:03;;;;;;;;;;;22.50;58.30;;;;;;5074933;28;19964;-59
2021/10/04 01:47:30;;;;;;;;;;;22.50;58.40;;;;;;5067192;28;19925;-58
2021/10/04 01:49:57;;;;;;;;;;;22.50;58.30;;;;;;5065026;28;20023;-56
2021/10/04 01:52:24;;;;;;;;;;;22.50;58.30;;;;;;5073568;28;19928;-58
2021/10/04 01:54:53;;;;;;;;;;;22.50;58.30;;;;;;5074065;28;19963;-56
2021/10/04 01:57:20;;;;;;;;;;;22.50;58.30;;;;;;5060040;28;19981;-59
2021/10/04 01:59:47;;;;;;;;;;;22.50;58.40;;;;;;5058827;28;19990;-58
2021/10/04 02:02:14;;;;;;;;;;;22.40;58.30;;;;;;5074800;28;19950;-58
2021/10/04 02:04:41;;;;;;;;;;;22.50;58.40;;;;;;5059380;28;20409;-59
2021/10/04 02:07:08;;;;;;;;;;;22.50;58.30;;;;;;5072898;28;19976;-57
2021/10/04 02:09:35;;;;;;;;;;;22.50;58.30;;;;;;5074372;28;19983;-58
2021/10/04 02:12:02;;;;;;;;;;;22.50;58.40;;;;;;5073149;28;19928;-58
2021/10/04 02:14:29;;;;;;;;;;;22.50;58.40;;;;;;5083198;28;20449;-56
2021/10/04 02:16:56;;;;;;;;;;;22.50;58.30;;;;;;5081571;28;19983;-56
2021/10/04 02:19:23;;;;;;;;;;;22.50;58.30;;;;;;5063548;28;20015;-58
2021/10/04 02:21:50;;;;;;;;;;;22.50;58.30;;;;;;5073997;28;19963;-58
2021/10/04 02:24:17;;;;;;;;;;;22.50;58.30;;;;;;5075272;28;19924;-58
2021/10/04 02:26:44;;;;;;;;;;;22.50;58.30;;;;;;5058117;28;19925;-58
2021/10/04 02:29:11;;;;;;;;;;;22.40;58.20;;;;;;5074527;28;20269;-58
2021/10/04 02:31:38;;;;;;;;;;;22.40;58.20;;;;;;5072853;28;20330;-58
2021/10/04 02:34:05;;;;;;;;;;;22.50;58.30;;;;;;5074900;28;19936;-58
2021/10/04 02:36:32;;;;;;;;;;;22.40;58.20;;;;;;5072544;28;20388;-58
2021/10/04 02:39:02;;;;;;;;;;;22.40;58.20;;;;;;5064778;28;19967;-59
2021/10/04 02:41:31;;;;;;;;;;;22.50;58.30;;;;;;5059941;28;19994;-57
2021/10/04 02:43:57;;;;;;;;;;;22.50;58.30;;;;;;5069968;28;19963;-57
2021/10/04 02:46:24;;;;;;;;;;;22.50;58.30;;;;;;5086948;28;19928;-57
2021/10/04 02:48:51;;;;;;;;;;;22.50;58.30;;;;;;5072878;28;20016;-58
2021/10/04 02:51:18;;;;;;;;;;;22.40;58.20;;;;;;5073809;28;20094;-58
2021/10/04 02:53:45;;;;;;;;;;;22.40;58.20;;;;;;5074673;28;20011;-58
2021/10/04 02:56:12;;;;;;;;;;;22.40;58.20;;;;;;5073168;28;19925;-59
2021/10/04 02:58:39;;;;;;;;;;;22.40;58.20;;;;;;5074583;28;20050;-59
2021/10/04 03:01:06;;;;;;;;;;;22.40;58.20;;;;;;5073474;28;19971;-56
2021/10/04 03:03:33;;;;;;;;;;;22.40;58.20;;;;;;5073309;28;19924;-58
2021/10/04 03:06:00;;;;;;;;;;;22.40;58.20;;;;;;5073081;28;19973;-58
2021/10/04 03:08:27;;;;;;;;;;;22.40;58.20;;;;;;5080641;28;19965;-56
2021/10/04 03:10:56;;;;;;;;;;;22.40;58.20;;;;;;5082807;28;20196;-57
2021/10/04 03:13:23;;;;;;;;;;;22.40;58.20;;;;;;5077691;28;19960;-58
2021/10/04 03:15:50;;;;;;;;;;;22.50;58.30;;;;;;5086172;28;19970;-59
2021/10/04 03:18:17;;;;;;;;;;;22.50;58.20;;;;;;5072668;28;19978;-58
2021/10/04 03:20:44;;;;;;;;;;;22.50;58.30;;;;;;5072993;28;20334;-58
2021/10/04 03:23:11;;;;;;;;;;;22.50;58.20;;;;;;5072262;28;19997;-58
2021/10/04 03:25:38;;;;;;;;;;;22.50;58.20;;;;;;5072879;28;20021;-58
2021/10/04 03:28:05;;;;;;;;;;;22.50;58.80;;;;;;5071684;28;19985;-59
2021/10/04 03:30:33;;;;;;;;;;;22.40;58.20;;;;;;5073888;28;19978;-58
2021/10/04 03:33:01;;;;;;;;;;;22.50;58.30;;;;;;5074253;28;20012;-57
2021/10/04 03:35:28;;;;;;;;;;;22.50;58.20;;;;;;5073755;28;19925;-59
2021/10/04 03:37:55;;;;;;;;;;;22.40;58.20;;;;;;5072727;28;19928;-58
2021/10/04 03:40:23;;;;;;;;;;;22.40;58.20;;;;;;5070697;28;19964;-58
2021/10/04 03:42:50;;;;;;;;;;;22.40;58.20;;;;;;5058720;28;19966;-58
2021/10/04 03:45:17;;;;;;;;;;;22.40;58.20;;;;;;5072739;28;20327;-59
2021/10/04 03:47:44;;;;;;;;;;;22.40;58.20;;;;;;5091703;28;19924;-59
2021/10/04 03:50:12;;;;;;;;;;;22.40;58.20;;;;;;5055095;28;20478;-56
2021/10/04 03:52:39;;;;;;;;;;;22.40;58.20;;;;;;5087439;28;20022;-55
2021/10/04 03:55:07;;;;;;;;;;;22.40;58.20;;;;;;5060520;28;19947;-57
2021/10/04 03:57:34;;;;;;;;;;;22.40;58.20;;;;;;5068158;28;19925;-58
2021/10/04 04:00:01;;;;;;;;;;;22.40;58.20;;;;;;5073181;28;19974;-58
2021/10/04 04:02:28;;;;;;;;;;;22.50;58.20;;;;;;5073753;28;20007;-57
2021/10/04 04:04:55;;;;;;;;;;;22.50;58.20;;;;;;5079009;28;19952;-57
2021/10/04 04:07:22;;;;;;;;;;;22.40;58.10;;;;;;5084113;28;19931;-57
2021/10/04 04:09:49;;;;;;;;;;;22.40;58.10;;;;;;5073631;28;20348;-58
2021/10/04 04:12:16;;;;;;;;;;;22.40;58.10;;;;;;5089862;28;19971;-57
2021/10/04 04:14:42;;;;;;;;;;;22.40;58.20;;;;;;5056102;28;19974;-58
2021/10/04 04:17:09;;;;;;;;;;;22.40;58.20;;;;;;5085906;28;19936;-57
2021/10/04 04:19:36;;;;;;;;;;;22.50;58.20;;;;;;5058230;28;19925;-57
2021/10/04 04:22:03;;;;;;;;;;;22.40;58.20;;;;;;5070093;28;19928;-58
2021/10/04 04:24:31;;;;;;;;;;;22.40;58.20;;;;;;5072198;28;19928;-58
2021/10/04 04:26:58;;;;;;;;;;;22.40;58.10;;;;;;5072132;28;20214;-58
2021/10/04 04:29:26;;;;;;;;;;;22.40;58.10;;;;;;5066531;28;19986;-58
2021/10/04 04:31:53;;;;;;;;;;;22.40;58.20;;;;;;5056468;28;19929;-58
2021/10/04 04:34:20;;;;;;;;;;;22.40;58.20;;;;;;5059559;28;20344;-57
2021/10/04 04:36:47;;;;;;;;;;;22.40;58.10;;;;;;5073123;28;19960;-56
2021/10/04 04:39:14;;;;;;;;;;;22.40;58.10;;;;;;5072064;28;19959;-57
2021/10/04 04:41:40;;;;;;;;;;;22.40;58.10;;;;;;5068208;28;20377;-57
2021/10/04 04:44:07;;;;;;;;;;;22.40;58.10;;;;;;5055197;28;19925;-58
2021/10/04 04:46:34;;;;;;;;;;;22.40;58.10;;;;;;5057821;28;19970;-58
2021/10/04 04:49:02;;;;;;;;;;;22.40;58.10;;;;;;5068134;28;19931;-58
2021/10/04 04:51:28;;;;;;;;;;;22.40;58.20;;;;;;5082540;28;19974;-58
2021/10/04 04:53:55;;;;;;;;;;;22.40;58.10;;;;;;5078127;28;20372;-59
2021/10/04 04:56:22;;;;;;;;;;;22.40;58.20;;;;;;5071302;28;19924;-58
2021/10/04 04:58:49;;;;;;;;;;;22.40;58.20;;;;;;5071824;28;19925;-58
2021/10/04 05:01:16;;;;;;;;;;;22.40;58.20;;;;;;5071442;28;19947;-58
2021/10/04 05:03:43;;;;;;;;;;;22.40;58.20;;;;;;5070985;28;20015;-58
2021/10/04 05:06:11;;;;;;;;;;;22.40;58.10;;;;;;5056229;28;19931;-57
2021/10/04 05:08:38;;;;;;;;;;;22.40;58.20;;;;;;5072769;28;20443;-57
2021/10/04 05:11:05;;;;;;;;;;;22.40;58.10;;;;;;5054960;28;20261;-57
2021/10/04 05:13:32;;;;;;;;;;;22.40;58.10;;;;;;5073911;28;20371;-58
2021/10/04 05:15:59;;;;;;;;;;;22.40;58.10;;;;;;5108585;27;20015;-59
2021/10/04 05:18:26;;;;;;;;;;;22.40;58.10;;;;;;5065004;28;20004;-57
2021/10/04 05:20:53;;;;;;;;;;;22.40;58.10;;;;;;5061157;28;19924;-57
2021/10/04 05:23:20;;;;;;;;;;;22.40;58.10;;;;;;5061341;28;19925;-57
2021/10/04 05:25:47;;;;;;;;;;;22.40;58.00;;;;;;5068095;28;20451;-58
2021/10/04 05:28:14;;;;;;;;;;;22.40;58.00;;;;;;5075333;28;19966;-56
2021/10/04 05:30:41;;;;;;;;;;;22.40;58.00;;;;;;5076079;28;19970;-59
2021/10/04 05:33:08;;;;;;;;;;;22.50;58.10;;;;;;5065957;28;20689;-57
2021/10/04 05:35:35;;;;;;;;;;;22.50;58.20;;;;;;5057656;28;20340;-58
2021/10/04 05:38:02;;;;;;;;;;;22.50;58.10;;;;;;5091599;28;19935;-58
2021/10/04 05:40:29;;;;;;;;;;;22.50;58.10;;;;;;5090363;28;19924;-58
2021/10/04 05:42:56;;;;;;;;;;;22.50;58.10;;;;;;5079663;28;19932;-57
2021/10/04 05:45:23;;;;;;;;;;;22.50;58.10;;;;;;5074857;28;20007;-58
2021/10/04 05:47:50;;;;;;;;;;;22.50;58.10;;;;;;5066680;28;20020;-58
2021/10/04 05:50:16;;;;;;;;;;;22.50;58.10;;;;;;5065312;28;20027;-57
2021/10/04 05:52:44;;;;;;;;;;;22.50;58.10;;;;;;5076496;28;20347;-59
2021/10/04 05:55:11;;;;;;;;;;;22.50;58.00;;;;;;5076035;28;19933;-59
2021/10/04 05:57:38;;;;;;;;;;;22.50;58.00;;;;;;5075553;28;19982;-57
2021/10/04 06:00:06;;;;;;;;;;;22.50;58.00;;;;;;5075556;28;19979;-58
2021/10/04 06:02:33;;;;;;;;;;;22.50;58.00;;;;;;5075457;28;19924;-59
2021/10/04 06:05:00;;;;;;;;;;;22.50;58.00;;;;;;5074207;28;19925;-59
2021/10/04 06:07:27;;;;;;;;;;;22.50;58.00;;;;;;5075883;28;20385;-57
2021/10/04 06:09:54;;;;;;;;;;;22.50;58.00;;;;;;5063841;28;19929;-57
2021/10/04 06:12:26;;;;;;;;;;;22.50;58.00;;;;;;5058913;28;19925;-59
2021/10/04 06:14:54;;;;;;;;;;;22.50;57.90;;;;;;5066497;28;19947;-58
2021/10/04 06:17:21;;;;;;;;;;;22.50;57.90;;;;;;5067635;28;19975;-58
2021/10/04 06:19:48;;;;;;;;;;;22.50;57.90;;;;;;5059028;28;20020;-59
2021/10/04 06:22:15;;;;;;;;;;;22.50;57.90;;;;;;5064862;28;19963;-59
2021/10/04 06:24:42;;;;;;;;;;;22.50;57.80;;;;;;5071452;28;19928;-58
2021/10/04 06:27:09;;;;;;;;;;;22.60;57.90;;;;;;5075178;28;20022;-57
2021/10/04 06:29:37;;;;;;;;;;;22.50;57.80;;;;;;5056861;28;19960;-58
2021/10/04 06:32:05;;;;;;;;;;;22.50;57.80;;;;;;5057273;28;19956;-59
2021/10/04 06:34:32;;;;;;;;;;;22.50;57.80;;;;;;5058346;28;19959;-59
2021/10/04 06:36:59;;;;;;;;;;;22.60;57.80;;;;;;5069901;28;19928;-58
2021/10/04 06:39:26;;;;;;;;;;;22.60;57.80;;;;;;5074001;28;20442;-59
2021/10/04 06:41:53;;;;;;;;;;;22.60;57.80;;;;;;5073561;28;20628;-57
2021/10/04 06:44:21;;;;;;;;;;;22.60;57.80;;;;;;5073906;28;19924;-59
2021/10/04 06:46:58;;;;;;;;;;;22.60;57.70;;;;;;5068198;28;19982;-60
2021/10/04 06:49:30;;;;;;;;;;;22.70;57.70;;;;;;5062476;28;19925;-59
2021/10/04 06:51:57;;;;;;;;;;;22.70;57.70;;;;;;5075720;28;20342;-58
2021/10/04 06:54:24;;;;;;;;;;;22.70;57.60;;;;;;5089845;28;20033;-57
2021/10/04 06:56:51;;;;;;;;;;;22.70;57.60;;;;;;5055557;28;19968;-59
2021/10/04 06:59:17;;;;;;;;;;;22.70;57.60;;;;;;5073729;28;19963;-59
2021/10/04 07:01:44;;;;;;;;;;;22.70;57.50;;;;;;5057602;28;19929;-57
2021/10/04 07:04:12;;;;;;;;;;;22.70;57.50;;;;;;5086826;28;19924;-57
2021/10/04 07:06:39;;;;;;;;;;;22.70;57.50;;;;;;5064065;28;20019;-58
2021/10/04 07:09:06;;;;;;;;;;;22.80;57.50;;;;;;5066705;28;19924;-58
2021/10/04 07:11:33;;;;;;;;;;;22.70;57.40;;;;;;5074233;28;19978;-56
2021/10/04 07:14:00;;;;;;;;;;;22.80;57.40;;;;;;5072946;28;19931;-57
2021/10/04 07:16:27;;;;;;;;;;;22.80;57.40;;;;;;5074103;28;20015;-57
2021/10/04 07:18:54;;;;;;;;;;;22.80;57.40;;;;;;5059631;28;20381;-58
2021/10/04 07:21:21;;;;;;;;;;;22.80;57.30;;;;;;5073181;28;19932;-57
2021/10/04 07:23:48;;;;;;;;;;;22.80;57.30;;;;;;5073294;28;19931;-58
2021/10/04 07:26:15;;;;;;;;;;;22.80;57.30;;;;;;5054331;28;20456;-58
2021/10/04 07:28:42;;;;;;;;;;;22.80;57.20;;;;;;5086888;28;19989;-58
2021/10/04 07:31:09;;;;;;;;;;;22.80;57.20;;;;;;5074121;28;20254;-58
2021/10/04 07:33:36;;;;;;;;;;;22.90;57.20;;;;;;5062255;28;19952;-57
2021/10/04 07:36:06;;;;;;;;;;;22.90;57.20;;;;;;5065597;28;20636;-59
2021/10/04 07:38:37;;;;;;;;;;;22.90;57.20;;;;;;5072582;28;20015;-59
2021/10/04 07:41:05;;;;;;;;;;;22.90;57.20;;;;;;5072818;28;19925;-58
2021/10/04 07:43:33;;;;;;;;;;;22.90;57.10;;;;;;5077226;28;19967;-58
2021/10/04 07:46:02;;;;;;;;;;;23.00;57.20;;;;;;5085453;28;20292;-59
2021/10/04 07:48:30;;;;;;;;;;;23.00;57.10;;;;;;5071153;28;20377;-59
2021/10/04 07:50:57;;;;;;;;;;;23.00;57.00;;;;;;5073583;28;19924;-57
2021/10/04 07:53:24;;;;;;;;;;;23.00;57.00;;;;;;5074007;28;19924;-58
2021/10/04 07:55:51;;;;;;;;;;;23.00;57.00;;;;;;5073507;28;19989;-59
2021/10/04 07:58:18;;;;;;;;;;;23.00;56.90;;;;;;5056935;28;19947;-59
2021/10/04 08:00:45;;;;;;;;;;;23.00;56.90;;;;;;5083203;28;19924;-57
2021/10/04 08:03:12;;;;;;;;;;;23.00;56.90;;;;;;5078274;28;20010;-57
2021/10/04 08:05:39;;;;;;;;;;;23.00;56.90;;;;;;5073513;28;19955;-57
2021/10/04 08:08:06;;;;;;;;;;;23.00;57.00;;;;;;5072280;28;19924;-58
2021/10/04 08:10:33;;;;;;;;;;;23.00;57.00;;;;;;5067138;28;19925;-58
2021/10/04 08:13:00;;;;;;;;;;;23.00;57.00;;;;;;5060692;28;19936;-57
2021/10/04 08:15:27;;;;;;;;;;;23.00;57.00;;;;;;5071882;28;19925;-58
2021/10/04 08:17:54;;;;;;;;;;;23.00;57.00;;;;;;5070547;28;19974;-58
2021/10/04 08:20:22;;;;;;;;;;;23.00;57.00;;;;;;5090437;28;19928;-58
2021/10/04 08:22:49;;;;;;;;;;;23.00;57.00;;;;;;5088620;28;19932;-58
2021/10/04 08:25:16;;;;;;;;;;;23.00;57.10;;;;;;5072294;28;19928;-58
2021/10/04 08:27:43;;;;;;;;;;;23.00;57.10;;;;;;5072945;28;20008;-58
2021/10/04 08:30:10;;;;;;;;;;;23.00;57.10;;;;;;5060817;28;19976;-58
2021/10/04 08:32:37;;;;;;;;;;;23.00;57.20;;;;;;5065656;28;19929;-58
2021/10/04 08:35:04;;;;;;;;;;;23.00;57.20;;;;;;5072151;28;20395;-58
2021/10/04 08:37:35;;;;;;;;;;;23.00;57.20;;;;;;5071667;28;19982;-58
2021/10/04 08:40:04;;;;;;;;;;;23.00;57.20;;;;;;5071503;28;19929;-59
2021/10/04 08:42:31;;;;;;;;;;;23.00;57.20;;;;;;5071976;28;19925;-58
2021/10/04 08:44:58;;;;;;;;;;;23.00;57.20;;;;;;5054683;28;19925;-58
2021/10/04 08:47:26;;;;;;;;;;;23.00;57.10;;;;;;5073875;28;20405;-58
2021/10/04 08:49:53;;;;;;;;;;;23.00;57.00;;;;;;5076005;28;19932;-59
2021/10/04 08:52:20;;;;;;;;;;;23.10;57.10;;;;;;5059299;28;20413;-59
2021/10/04 08:54:48;;;;;;;;;;;23.10;57.10;;;;;;5074872;28;19976;-59
2021/10/04 08:57:15;;;;;;;;;;;23.10;57.00;;;;;;5076131;28;19998;-57
2021/10/04 08:59:41;;;;;;;;;;;23.10;57.00;;;;;;5077985;28;19924;-58
2021/10/04 09:02:28;;;;;;;;;;;23.10;57.00;;;;;;5109836;27;19973;-56
2021/10/04 09:05:13;;;;;;;;;;;23.10;56.90;;;;;;5069168;28;20214;-59
2021/10/04 09:07:45;;;;;;;;;;;23.10;57.00;;;;;;5069803;28;19929;-58
2021/10/04 09:10:14;;;;;;;;;;;23.10;56.90;;;;;;5069687;28;20016;-58
2021/10/04 09:12:42;;;;;;;;;;;23.20;57.00;;;;;;5062465;28;20329;-58
2021/10/04 09:15:18;;;;;;;;;;;23.10;56.90;;;;;;5065015;28;19991;-58
2021/10/04 09:17:45;;;;;;;;;;;23.10;57.00;;;;;;5074126;28;19981;-57
2021/10/04 09:20:12;;;;;;;;;;;23.10;57.00;;;;;;5059298;28;19924;-58
2021/10/04 09:22:39;;;;;;;;;;;23.20;57.10;;;;;;5075485;28;19989;-57
2021/10/04 09:25:07;;;;;;;;;;;23.10;57.10;;;;;;5076550;28;20315;-57
2021/10/04 09:27:34;;;;;;;;;;;23.20;57.10;;;;;;5075360;28;19932;-58
2021/10/04 09:30:04;;;;;;;;;;;23.20;57.10;;;;;;5060844;28;19964;-59
2021/10/04 09:32:36;;;;;;;;;;;23.10;57.10;;;;;;5073732;28;19925;-58
2021/10/04 09:35:13;;;;;;;;;;;23.10;57.10;;;;;;5063865;28;19925;-59
2021/10/04 09:37:41;;;;;;;;;;;23.10;57.10;;;;;;5070343;28;19924;-58
2021/10/04 09:40:28;;;;;;;;;;;23.20;57.10;;;;;;5074862;28;19956;-58
2021/10/04 09:42:55;;;;;;;;;;;23.20;57.10;;;;;;5066577;28;20385;-59
2021/10/04 09:45:23;;;;;;;;;;;23.10;57.10;;;;;;5075184;28;19967;-58
2021/10/04 09:47:51;;;;;;;;;;;23.20;57.20;;;;;;5074670;28;19971;-58
2021/10/04 09:50:24;;;;;;;;;;;23.10;57.20;;;;;;5071142;28;20300;-58
2021/10/04 09:52:52;;;;;;;;;;;23.20;57.30;;;;;;5062912;28;19931;-58
2021/10/04 09:55:25;;;;;;;;;;;23.10;57.30;;;;;;5073602;28;20068;-56
2021/10/04 09:58:15;;;;;;;;;;;23.10;57.30;;;;;;5073767;28;19994;-58
2021/10/04 10:00:49;;;;;;;;;;;23.10;57.30;;;;;;5074600;28;20007;-57
2021/10/04 10:03:18;;;;;;;;;;;23.10;57.40;;;;;;5074369;28;19924;-59
2021/10/04 10:05:49;;;;;;;;;;;23.10;57.40;;;;;;5074517;28;19925;-59
2021/10/04 10:08:19;;;;;;;;;;;23.10;57.40;;;;;;5073019;28;19986;-58
2021/10/04 10:10:47;;;;;;;;;;;23.10;57.40;;;;;;5073534;28;19933;-59
2021/10/04 10:13:15;;;;;;;;;;;23.10;57.40;;;;;;5075797;28;19929;-58
2021/10/04 10:15:46;;;;;;;;;;;23.10;57.50;;;;;;5074094;28;20186;-59
2021/10/04 10:18:19;;;;;;;;;;;23.10;57.50;;;;;;5075542;28;20388;-60
2021/10/04 10:20:52;;;;;;;;;;;23.10;57.60;;;;;;5085496;28;19924;-59
2021/10/04 10:23:38;;;;;;;;;;;23.10;57.50;;;;;;5080936;28;19963;-58
2021/10/04 10:26:23;;;;;;;;;;;23.10;57.60;;;;;;5064414;28;19944;-59
2021/10/04 10:28:50;;;;;;;;;;;23.00;57.50;;;;;;5058641;28;19925;-59
2021/10/04 10:31:17;;;;;;;;;;;23.10;57.60;;;;;;5073871;28;19928;-58
2021/10/04 10:33:49;;;;;;;;;;;23.10;57.60;;;;;;5084781;28;19929;-59
2021/10/04 10:36:18;;;;;;;;;;;23.10;57.60;;;;;;5079630;28;20326;-60
2021/10/04 10:38:58;;;;;;;;;;;23.10;57.70;;;;;;5088484;28;19925;-59
2021/10/04 10:41:25;;;;;;;;;;;23.10;57.60;;;;;;5073000;28;20433;-60
2021/10/04 10:44:06;;;;;;;;;;;23.10;57.60;;;;;;5059930;28;20338;-59
2021/10/04 10:46:53;;;;;;;;;;;23.10;57.60;;;;;;5058668;28;20355;-61
2021/10/04 10:49:38;;;;;;;;;;;23.10;57.60;;;;;;5073069;28;19928;-58
2021/10/04 10:52:15;;;;;;;;;;;23.10;57.60;;;;;;5059265;28;19929;-59
2021/10/04 10:54:42;;;;;;;;;;;23.10;57.50;;;;;;5059543;28;19924;-59
2021/10/04 10:57:09;;;;;;;;;;;23.20;57.60;;;;;;5057540;28;19928;-59
2021/10/04 10:59:36;;;;;;;;;;;23.20;57.60;;;;;;5073548;28;19925;-59
2021/10/04 11:02:03;;;;;;;;;;;23.20;57.60;;;;;;5073666;28;19928;-60
2021/10/04 11:04:41;;;;;;;;;;;23.20;57.60;;;;;;5059055;28;20434;-59
2021/10/04 11:07:08;;;;;;;;;;;23.20;57.50;;;;;;5072639;28;19928;-59
2021/10/04 11:09:53;;;;;;;;;;;23.20;57.60;;;;;;5072319;28;20339;-59
2021/10/04 11:12:20;;;;;;;;;;;23.20;57.60;;;;;;5074258;28;19924;-59
2021/10/04 11:14:56;;;;;;;;;;;23.20;57.70;;;;;;5063500;28;19975;-59
2021/10/04 11:17:24;;;;;;;;;;;23.20;57.60;;;;;;5057484;28;19924;-59
2021/10/04 11:19:51;;;;;;;;;;;23.10;57.60;;;;;;5064866;28;19924;-59
2021/10/04 11:22:19;;;;;;;;;;;23.10;57.70;;;;;;5068292;28;19925;-59
2021/10/04 11:24:46;;;;;;;;;;;23.20;57.70;;;;;;5057589;28;20019;-60
2021/10/04 11:27:14;;;;;;;;;;;23.20;57.70;;;;;;5058979;28;19924;-60
2021/10/04 11:29:41;;;;;;;;;;;23.20;57.70;;;;;;5058062;28;20020;-60
2021/10/04 11:32:11;;;;;;;;;;;23.10;57.60;;;;;;5073059;28;20378;-59
2021/10/04 11:34:38;;;;;;;;;;;23.20;57.60;;;;;;5086362;28;19971;-58
2021/10/04 11:37:07;;;;;;;;;;;23.20;57.70;;;;;;5058029;28;20323;-59
2021/10/04 11:39:34;;;;;;;;;;;23.20;57.70;;;;;;5085625;28;19969;-60
2021/10/04 11:42:07;;;;;;;;;;;23.20;57.70;;;;;;5075711;28;19960;-59
2021/10/04 11:44:40;;;;;;;;;;;23.20;57.70;;;;;;5062951;28;20020;-58
2021/10/04 11:47:08;;;;;;;;;;;23.20;57.70;;;;;;5058446;28;19924;-59
2021/10/04 11:49:40;;;;;;;;;;;23.10;57.70;;;;;;5058637;28;19925;-59
2021/10/04 11:52:12;;;;;;;;;;;23.20;57.70;;;;;;5056913;28;19960;-59
2021/10/04 11:54:48;;;;;;;;;;;23.20;57.70;;;;;;5061638;28;19968;-58
2021/10/04 11:57:18;;;;;;;;;;;23.20;57.60;;;;;;5067891;28;20385;-58
2021/10/04 11:59:50;;;;;;;;;;;23.20;57.60;;;;;;5063078;28;19924;-60
2021/10/04 12:02:22;;;;;;;;;;;23.20;57.60;;;;;;5084477;28;19924;-59
2021/10/04 12:05:09;;;;;;;;;;;23.20;57.60;;;;;;5058364;28;19964;-59
2021/10/04 12:07:36;;;;;;;;;;;23.20;57.60;;;;;;5056935;28;19928;-61
2021/10/04 12:10:03;;;;;;;;;;;23.20;57.60;;;;;;5055562;28;19974;-59
2021/10/04 12:12:34;;;;;;;;;;;23.20;57.50;;;;;;5054519;28;20498;-58
2021/10/04 12:15:02;;;;;;;;;;;23.20;57.50;;;;;;5054803;28;19925;-59
2021/10/04 12:17:34;;;;;;;;;;;23.20;57.50;;;;;;5056235;28;20412;-60
2021/10/04 12:20:01;;;;;;;;;;;23.20;57.50;;;;;;5056543;28;19924;-59
2021/10/04 12:22:29;;;;;;;;;;;23.20;57.50;;;;;;5067980;28;20015;-58
2021/10/04 12:24:56;;;;;;;;;;;23.20;57.60;;;;;;5062161;28;20349;-59
2021/10/04 12:27:23;;;;;;;;;;;23.20;57.50;;;;;;5063915;28;19956;-59
2021/10/04 12:29:51;;;;;;;;;;;23.20;57.50;;;;;;5071939;28;19990;-60
2021/10/04 12:32:19;;;;;;;;;;;23.20;57.50;;;;;;5075187;28;19971;-59
2021/10/04 12:35:03;;;;;;;;;;;23.20;57.50;;;;;;5085768;28;19980;-60
2021/10/04 12:37:31;;;;;;;;;;;23.20;57.50;;;;;;5071962;28;20322;-60
2021/10/04 12:39:58;;;;;;;;;;;23.20;57.50;;;;;;5073454;28;19924;-59
2021/10/04 12:42:27;;;;;;;;;;;23.30;57.50;;;;;;5054430;28;20403;-57
2021/10/04 12:44:56;;;;;;;;;;;23.30;57.50;;;;;;5072099;28;19932;-59
2021/10/04 12:47:23;;;;;;;;;;;23.30;57.50;;;;;;5055255;28;20571;-58
2021/10/04 12:49:55;;;;;;;;;;;23.30;57.50;;;;;;5072370;28;19925;-60
2021/10/04 12:52:26;;;;;;;;;;;23.30;57.50;;;;;;5071814;28;20486;-60
2021/10/04 12:54:54;;;;;;;;;;;23.30;57.50;;;;;;5059755;28;19974;-59
2021/10/04 12:57:21;;;;;;;;;;;23.30;57.50;;;;;;5055900;28;20304;-59
2021/10/04 12:59:54;;;;;;;;;;;23.20;57.40;;;;;;5074950;28;19928;-58
2021/10/04 13:02:25;;;;;;;;;;;23.30;57.50;;;;;;5073979;28;20368;-59
2021/10/04 13:04:53;;;;;;;;;;;23.20;57.40;;;;;;5061536;28;19932;-59
2021/10/04 13:07:21;;;;;;;;;;;23.30;57.50;;;;;;5068112;28;20007;-59
2021/10/04 13:09:48;;;;;;;;;;;23.30;57.50;;;;;;5058600;28;19928;-59
2021/10/04 13:12:16;;;;;;;;;;;23.30;57.50;;;;;;5071486;28;19990;-59
2021/10/04 13:14:43;;;;;;;;;;;23.20;57.50;;;;;;5072472;28;19974;-58
2021/10/04 13:17:09;;;;;;;;;;;23.20;57.50;;;;;;5070460;28;19964;-58
2021/10/04 13:19:37;;;;;;;;;;;23.20;57.50;;;;;;5071676;28;20390;-59
2021/10/04 13:22:04;;;;;;;;;;;23.20;57.50;;;;;;5071851;28;19928;-59
2021/10/04 13:24:31;;;;;;;;;;;23.20;57.60;;;;;;5106342;28;19932;-58
2021/10/04 13:26:58;;;;;;;;;;;23.20;57.50;;;;;;5070230;28;19969;-59
2021/10/04 13:29:25;;;;;;;;;;;23.20;57.50;;;;;;5071695;28;19925;-58
2021/10/04 13:31:52;;;;;;;;;;;23.20;57.60;;;;;;5072867;28;19924;-58
2021/10/04 13:34:19;;;;;;;;;;;23.20;57.60;;;;;;5076650;28;19940;-60
2021/10/04 13:36:46;;;;;;;;;;;23.20;57.60;;;;;;5073875;28;19935;-59
2021/10/04 13:39:14;;;;;;;;;;;23.20;57.60;;;;;;5057410;28;19978;-59
2021/10/04 13:41:41;;;;;;;;;;;23.20;57.70;;;;;;5056740;28;19925;-59
2021/10/04 13:44:08;;;;;;;;;;;23.20;57.70;;;;;;5057799;28;20517;-59
2021/10/04 13:46:35;;;;;;;;;;;23.20;57.70;;;;;;5059580;28;19971;-59
2021/10/04 13:49:02;;;;;;;;;;;23.20;57.70;;;;;;5072136;28;19924;-57
2021/10/04 13:51:29;;;;;;;;;;;23.20;57.80;;;;;;5065052;28;19931;-58
2021/10/04 13:53:56;;;;;;;;;;;23.20;57.80;;;;;;5068236;28;20355;-58
2021/10/04 13:56:23;;;;;;;;;;;23.20;57.80;;;;;;5082187;28;19964;-58
2021/10/04 13:58:51;;;;;;;;;;;23.20;57.90;;;;;;5101338;28;20083;-58
2021/10/04 14:01:18;;;;;;;;;;;23.20;57.90;;;;;;5074597;28;20372;-58
2021/10/04 14:03:45;;;;;;;;;;;23.20;57.80;;;;;;5075314;28;20354;-58
2021/10/04 14:06:13;;;;;;;;;;;23.20;57.90;;;;;;5091432;28;19924;-59
2021/10/04 14:08:40;;;;;;;;;;;23.20;57.90;;;;;;5058560;28;19972;-59
2021/10/04 14:11:07;;;;;;;;;;;23.20;57.90;;;;;;5057067;28;20334;-59
2021/10/04 14:13:34;;;;;;;;;;;23.20;57.90;;;;;;5060262;28;19932;-59
2021/10/04 14:16:01;;;;;;;;;;;23.20;57.90;;;;;;5060509;28;19925;-59
2021/10/04 14:18:28;;;;;;;;;;;23.20;58.00;;;;;;5059046;28;19951;-59
2021/10/04 14:20:55;;;;;;;;;;;23.20;58.00;;;;;;5068151;28;20007;-59
2021/10/04 14:23:22;;;;;;;;;;;23.20;58.00;;;;;;5067724;28;19925;-60